createdAt,value
2023-10-13T00:02:01.040Z,62.84
2023-10-13T00:04:36.701Z,62.71
2023-10-13T00:07:05.501Z,62.84
2023-10-13T00:09:34.260Z,62.58
2023-10-13T00:12:02.149Z,62.56
2023-10-13T00:14:34.513Z,62.57
2023-10-13T00:17:06.002Z,62.43
2023-10-13T00:19:39.514Z,62.31
2023-10-13T00:22:12.963Z,62.27
2023-10-13T00:24:48.726Z,62.14
2023-10-13T00:27:34.631Z,62.03
2023-10-13T00:30:19.009Z,62.14
2023-10-13T00:32:55.860Z,62.23
2023-10-13T00:35:29.480Z,62.05
2023-10-13T00:37:56.566Z,61.88
2023-10-13T00:40:41.328Z,61.92
2023-10-13T00:43:23.128Z,62.13
2023-10-13T00:45:58.299Z,62.18
2023-10-13T00:48:30.447Z,62.06
2023-10-13T00:51:00.479Z,62.00
2023-10-13T00:53:30.005Z,61.89
2023-10-13T00:55:57.134Z,62.11
2023-10-13T00:58:28.621Z,61.93
2023-10-13T01:00:57.877Z,61.85
2023-10-13T01:03:28.431Z,62.11
2023-10-13T01:05:56.032Z,61.96
2023-10-13T01:08:39.075Z,62.04
2023-10-13T01:11:08.483Z,62.10
2023-10-13T01:13:37.563Z,61.75
2023-10-13T01:16:08.427Z,62.00
2023-10-13T01:18:50.926Z,61.88
2023-10-13T01:21:20.740Z,61.81
2023-10-13T01:23:52.156Z,62.00
2023-10-13T01:26:24.794Z,61.86
2023-10-13T01:28:55.426Z,61.88
2023-10-13T01:31:30.302Z,61.88
2023-10-13T01:34:00.814Z,61.99
2023-10-13T01:36:27.745Z,62.01
2023-10-13T01:38:57.006Z,62.03
2023-10-13T01:41:23.801Z,62.11
2023-10-13T01:43:52.847Z,61.95
2023-10-13T01:46:23.315Z,61.85
2023-10-13T01:48:55.443Z,61.96
2023-10-13T01:51:24.327Z,61.95
2023-10-13T01:53:57.405Z,61.83
2023-10-13T01:56:26.018Z,62.01
2023-10-13T01:58:54.762Z,62.07
2023-10-13T02:01:27.800Z,62.05
2023-10-13T02:04:04.727Z,62.09
2023-10-13T02:06:35.056Z,62.00
2023-10-13T02:09:11.386Z,62.14
2023-10-13T02:11:40.230Z,62.21
2023-10-13T02:14:08.082Z,62.08
2023-10-13T02:16:37.947Z,62.21
2023-10-13T02:19:06.101Z,62.10
2023-10-13T02:21:33.046Z,62.39
2023-10-13T02:24:05.091Z,62.26
2023-10-13T02:26:32.206Z,62.27
2023-10-13T02:29:04.338Z,62.48
2023-10-13T02:31:32.436Z,62.47
2023-10-13T02:34:01.043Z,62.61
2023-10-13T02:36:38.119Z,62.63
2023-10-13T02:39:08.723Z,62.44
2023-10-13T02:41:38.182Z,62.74
2023-10-13T02:44:08.826Z,62.84
2023-10-13T02:46:37.485Z,63.02
2023-10-13T02:49:12.166Z,62.92
2023-10-13T02:51:43.148Z,63.01
2023-10-13T02:54:12.499Z,63.11
2023-10-13T02:56:42.528Z,63.29
2023-10-13T02:59:13.477Z,63.58
2023-10-13T03:01:40.231Z,63.81
2023-10-13T03:04:10.003Z,64.19
2023-10-13T03:06:37.039Z,64.41
2023-10-13T03:09:16.029Z,64.86
2023-10-13T03:11:43.703Z,65.38
2023-10-13T03:14:25.124Z,65.38
2023-10-13T03:16:54.366Z,65.53
2023-10-13T03:19:22.208Z,65.76
2023-10-13T03:21:56.342Z,65.77
2023-10-13T03:24:34.575Z,66.04
2023-10-13T03:27:09.943Z,66.17
2023-10-13T03:29:40.361Z,65.99
2023-10-13T03:32:12.794Z,65.98
2023-10-13T03:34:55.897Z,66.20
2023-10-13T03:37:39.090Z,66.09
2023-10-13T03:40:29.984Z,66.09
2023-10-13T03:43:05.542Z,66.48
2023-10-13T03:45:40.496Z,66.55
2023-10-13T03:48:12.782Z,66.49
2023-10-13T03:50:48.654Z,66.67
2023-10-13T03:53:16.421Z,66.30
2023-10-13T03:55:49.517Z,66.75
2023-10-13T03:58:18.021Z,66.60
2023-10-13T04:00:47.446Z,66.43
2023-10-13T04:03:18.338Z,66.85
2023-10-13T04:06:07.663Z,66.77
2023-10-13T04:08:49.799Z,66.91
2023-10-13T04:11:34.949Z,66.66
2023-10-13T04:14:20.334Z,66.84
2023-10-13T04:16:55.909Z,66.81
2023-10-13T04:19:30.397Z,66.56
2023-10-13T04:22:00.186Z,66.53
2023-10-13T04:24:46.184Z,66.60
2023-10-13T04:27:46.197Z,66.51
2023-10-13T04:30:26.623Z,66.21
2023-10-13T04:33:09.809Z,66.28
2023-10-13T04:35:48.654Z,66.10
2023-10-13T04:38:21.405Z,66.07
2023-10-13T04:41:02.624Z,65.85
2023-10-13T04:43:56.124Z,65.81
2023-10-13T04:46:37.124Z,65.62
2023-10-13T04:49:27.996Z,65.80
2023-10-13T04:52:02.075Z,65.65
2023-10-13T04:54:34.828Z,65.64
2023-10-13T04:57:16.740Z,65.77
2023-10-13T05:00:08.869Z,65.62
2023-10-13T05:02:57.077Z,65.65
2023-10-13T05:08:20.166Z,65.80
2023-10-13T05:11:05.417Z,65.67
2023-10-13T05:13:50.867Z,65.86
2023-10-13T05:16:50.853Z,65.86
2023-10-13T05:19:36.134Z,65.68
2023-10-13T05:22:21.556Z,65.87
2023-10-13T05:25:08.153Z,65.92
2023-10-13T05:27:53.708Z,66.15
2023-10-13T05:30:39.086Z,66.55
2023-10-13T05:33:24.401Z,66.89
2023-10-13T05:36:09.840Z,67.05
2023-10-13T05:38:55.129Z,66.81
2023-10-13T05:41:42.060Z,67.23
2023-10-13T05:44:27.494Z,67.48
2023-10-13T05:47:35.108Z,67.74
2023-10-13T05:50:06.776Z,67.74
2023-10-13T05:52:52.094Z,68.17
2023-10-13T05:55:37.623Z,68.29
2023-10-13T05:58:24.383Z,68.48
2023-10-13T06:01:09.684Z,68.79
2023-10-13T06:03:54.892Z,68.87
2023-10-13T06:06:40.195Z,68.78
2023-10-13T06:09:25.900Z,69.06
2023-10-13T06:12:11.223Z,69.13
2023-10-13T06:14:57.837Z,69.24
2023-10-13T06:17:43.067Z,69.28
2023-10-13T06:20:29.156Z,69.10
2023-10-13T06:23:14.356Z,69.22
2023-10-13T06:25:59.833Z,69.12
2023-10-13T06:28:43.033Z,69.08
2023-10-13T06:31:22.877Z,69.24
2023-10-13T06:33:51.290Z,69.09
2023-10-13T06:36:20.030Z,69.08
2023-10-13T06:38:56.494Z,69.07
2023-10-13T06:41:35.688Z,69.29
2023-10-13T06:44:06.412Z,68.93
2023-10-13T06:46:36.193Z,69.22
2023-10-13T06:49:04.184Z,69.12
2023-10-13T06:51:39.030Z,68.93
2023-10-13T06:54:11.838Z,68.73
2023-10-13T06:56:41.685Z,68.82
2023-10-13T06:59:09.418Z,68.99
2023-10-13T07:01:41.551Z,68.90
2023-10-13T07:04:14.508Z,69.12
2023-10-13T07:06:45.605Z,68.84
2023-10-13T07:09:30.587Z,68.61
2023-10-13T07:12:02.223Z,68.70
2023-10-13T07:14:30.051Z,68.49
2023-10-13T07:17:00.419Z,68.62
2023-10-13T07:19:29.361Z,68.48
2023-10-13T07:21:59.839Z,68.47
2023-10-13T07:24:33.007Z,68.33
2023-10-13T07:27:06.182Z,68.26
2023-10-13T07:29:36.601Z,67.98
2023-10-13T07:32:13.820Z,67.39
2023-10-13T07:34:41.868Z,67.52
2023-10-13T07:37:17.258Z,67.40
2023-10-13T07:39:45.253Z,67.28
2023-10-13T07:42:20.637Z,67.12
2023-10-13T07:44:48.494Z,66.75
2023-10-13T07:47:19.332Z,66.41
2023-10-13T07:49:51.911Z,66.41
2023-10-13T07:52:38.224Z,66.12
2023-10-13T07:55:21.207Z,65.95
2023-10-13T07:58:01.057Z,65.35
2023-10-13T08:00:40.141Z,64.88
2023-10-13T08:03:22.116Z,64.79
2023-10-13T08:05:59.521Z,64.38
2023-10-13T08:08:36.408Z,63.52
2023-10-13T08:11:09.766Z,63.60
2023-10-13T08:13:48.168Z,63.29
2023-10-13T08:16:24.372Z,62.59
2023-10-13T08:18:53.497Z,63.03
2023-10-13T08:21:24.177Z,62.42
2023-10-13T08:24:07.177Z,62.19
2023-10-13T08:26:51.623Z,62.14
2023-10-13T08:29:36.756Z,61.71
2023-10-13T08:32:21.208Z,61.10
2023-10-13T08:35:11.373Z,60.80
2023-10-13T08:38:08.558Z,59.48
2023-10-13T08:41:05.665Z,59.75
2023-10-13T08:43:44.792Z,57.97
2023-10-13T08:46:25.864Z,57.37
2023-10-13T08:49:07.979Z,54.02
2023-10-13T08:51:46.505Z,51.89
2023-10-13T08:54:20.671Z,49.72
2023-10-13T08:56:56.748Z,47.01
2023-10-13T08:59:34.723Z,44.21
2023-10-13T09:02:17.832Z,43.52
2023-10-13T09:04:46.067Z,41.56
2023-10-13T09:07:23.312Z,41.41
2023-10-13T09:10:14.634Z,39.63
2023-10-13T09:13:01.694Z,40.15
2023-10-13T09:15:46.841Z,41.26
2023-10-13T09:18:20.056Z,42.13
2023-10-13T09:20:47.280Z,42.89
2023-10-13T09:23:26.082Z,42.57
2023-10-13T09:25:59.413Z,40.79
2023-10-13T09:28:29.380Z,39.40
2023-10-13T09:30:58.349Z,37.89
2023-10-13T09:33:30.572Z,36.54
2023-10-13T09:36:00.516Z,35.48
2023-10-13T09:38:29.862Z,34.46
2023-10-13T09:40:59.344Z,33.59
2023-10-13T09:43:27.802Z,34.04
2023-10-13T09:46:03.365Z,33.93
2023-10-13T09:48:34.016Z,34.68
2023-10-13T09:51:02.987Z,35.94
2023-10-13T09:53:31.899Z,35.69
2023-10-13T09:56:12.419Z,34.65
2023-10-13T09:58:48.651Z,33.80
2023-10-13T10:01:21.903Z,33.30
2023-10-13T10:04:09.310Z,31.55
2023-10-13T10:06:44.902Z,30.36
2023-10-13T10:09:13.234Z,29.99
2023-10-13T10:12:19.744Z,28.75
2023-10-13T10:14:59.475Z,28.94
2023-10-13T10:17:30.667Z,28.90
2023-10-13T10:19:58.598Z,29.55
2023-10-13T10:22:29.175Z,29.26
2023-10-13T10:25:00.402Z,29.26
2023-10-13T10:27:30.351Z,29.22
2023-10-13T10:29:58.405Z,29.13
2023-10-13T10:32:41.504Z,28.39
2023-10-13T10:35:11.048Z,28.75
2023-10-13T10:37:40.741Z,29.00
2023-10-13T10:40:20.546Z,29.69
2023-10-13T10:42:53.792Z,29.82
2023-10-13T10:45:24.010Z,30.07
2023-10-13T10:47:59.307Z,30.56
2023-10-13T10:50:36.155Z,30.11
2023-10-13T10:53:09.845Z,30.81
2023-10-13T10:55:39.594Z,29.53
2023-10-13T10:58:07.804Z,28.53
2023-10-13T11:00:47.222Z,28.28
2023-10-13T11:03:15.951Z,26.94
2023-10-13T11:05:47.453Z,26.41
2023-10-13T11:08:32.648Z,25.70
2023-10-13T11:11:05.178Z,25.01
2023-10-13T11:13:51.693Z,24.50
2023-10-13T11:16:26.177Z,24.46
2023-10-13T11:19:03.155Z,24.33
2023-10-13T11:21:32.762Z,24.06
2023-10-13T11:24:09.782Z,25.76
2023-10-13T11:26:49.233Z,27.01
2023-10-13T11:29:19.970Z,28.03
2023-10-13T11:31:54.678Z,28.72
2023-10-13T11:34:22.891Z,29.06
2023-10-13T11:36:50.854Z,29.82
2023-10-13T11:39:23.914Z,30.71
2023-10-13T11:41:55.932Z,31.26
2023-10-13T11:44:26.139Z,31.97
2023-10-13T11:47:08.560Z,32.70
2023-10-13T11:49:38.601Z,33.73
2023-10-13T11:52:26.322Z,33.61
2023-10-13T11:54:54.186Z,31.73
2023-10-13T11:57:23.648Z,30.24
2023-10-13T12:00:20.108Z,29.26
2023-10-13T12:03:05.577Z,29.98
2023-10-13T12:05:50.300Z,30.86
2023-10-13T12:08:23.722Z,31.25
2023-10-13T12:11:01.242Z,32.73
2023-10-13T12:13:31.584Z,33.39
2023-10-13T12:15:59.464Z,33.69
2023-10-13T12:18:29.157Z,34.56
2023-10-13T12:20:58.345Z,35.18
2023-10-13T12:23:32.583Z,35.62
2023-10-13T12:26:01.671Z,36.00
2023-10-13T12:28:32.572Z,36.57
2023-10-13T12:31:08.385Z,36.23
2023-10-13T12:33:41.334Z,37.10
2023-10-13T12:36:11.965Z,37.10
2023-10-13T12:38:52.200Z,37.12
2023-10-13T12:41:37.924Z,37.83
2023-10-13T12:44:25.249Z,37.91
2023-10-13T12:47:10.730Z,38.80
2023-10-13T12:49:53.449Z,38.13
2023-10-13T12:52:21.555Z,38.80
2023-10-13T12:54:59.678Z,38.09
2023-10-13T12:57:27.729Z,38.17
2023-10-13T12:59:56.987Z,38.16
2023-10-13T13:02:26.419Z,38.37
2023-10-13T13:04:58.137Z,38.23
2023-10-13T13:07:30.485Z,38.36
2023-10-13T13:10:01.067Z,38.79
2023-10-13T13:12:29.360Z,38.31
2023-10-13T13:14:58.487Z,38.91
2023-10-13T13:17:26.345Z,39.34
2023-10-13T13:19:54.868Z,39.11
2023-10-13T13:22:22.807Z,39.41
2023-10-13T13:24:50.514Z,39.61
2023-10-13T13:27:21.002Z,39.57
2023-10-13T13:29:48.858Z,39.37
2023-10-13T13:32:20.227Z,39.05
2023-10-13T13:34:56.227Z,38.89
2023-10-13T13:37:28.517Z,38.74
2023-10-13T13:39:57.586Z,38.47
2023-10-13T13:42:25.339Z,39.36
2023-10-13T13:45:00.091Z,39.15
2023-10-13T13:47:29.317Z,38.91
2023-10-13T13:49:57.306Z,39.35
2023-10-13T13:52:34.961Z,38.94
2023-10-13T13:55:04.269Z,38.96
2023-10-13T13:57:32.206Z,38.97
2023-10-13T13:59:59.979Z,39.47
2023-10-13T14:02:29.837Z,39.08
2023-10-13T14:04:57.908Z,39.00
2023-10-13T14:07:25.898Z,39.04
2023-10-13T14:09:53.929Z,39.19
2023-10-13T14:12:42.696Z,39.42
2023-10-13T14:15:21.134Z,39.60
2023-10-13T14:17:50.888Z,39.12
2023-10-13T14:20:20.533Z,39.34
2023-10-13T14:22:50.565Z,39.02
2023-10-13T14:25:19.482Z,38.92
2023-10-13T14:27:47.572Z,39.23
2023-10-13T14:30:20.935Z,38.63
2023-10-13T14:32:50.669Z,38.55
2023-10-13T14:35:18.628Z,38.67
2023-10-13T14:37:46.360Z,39.04
2023-10-13T14:40:16.301Z,39.08
2023-10-13T14:42:44.455Z,38.56
2023-10-13T14:45:14.588Z,38.75
2023-10-13T14:47:42.807Z,38.66
2023-10-13T14:50:18.660Z,38.69
2023-10-13T14:52:46.503Z,38.67
2023-10-13T14:55:20.811Z,38.71
2023-10-13T14:57:50.735Z,38.87
2023-10-13T15:00:25.862Z,38.73
2023-10-13T15:02:54.215Z,38.97
2023-10-13T15:05:23.604Z,39.07
2023-10-13T15:07:52.634Z,38.83
2023-10-13T15:10:20.616Z,38.62
2023-10-13T15:12:49.907Z,39.02
2023-10-13T15:15:20.150Z,39.02
2023-10-13T15:17:48.193Z,39.32
2023-10-13T15:20:17.960Z,39.39
2023-10-13T15:22:48.784Z,38.96
2023-10-13T15:25:29.457Z,38.95
2023-10-13T15:28:03.797Z,39.55
2023-10-13T15:30:45.450Z,38.83
2023-10-13T15:33:14.218Z,38.98
2023-10-13T15:35:43.893Z,39.08
2023-10-13T15:38:14.204Z,38.94
2023-10-13T15:40:45.659Z,39.16
2023-10-13T15:43:13.996Z,39.38
2023-10-13T15:45:43.999Z,39.47
2023-10-13T15:50:43.765Z,39.75
2023-10-13T15:53:14.806Z,39.89
2023-10-13T15:55:46.783Z,39.85
2023-10-13T15:58:14.794Z,39.91
2023-10-13T16:00:42.812Z,39.73
2023-10-13T16:03:13.051Z,39.65
2023-10-13T16:05:43.652Z,39.86
2023-10-13T16:08:13.573Z,40.14
2023-10-13T16:10:41.793Z,40.38
2023-10-13T16:13:16.347Z,40.29
2023-10-13T16:15:44.842Z,40.68
2023-10-13T16:18:12.770Z,40.71
2023-10-13T16:20:41.172Z,40.75
2023-10-13T16:23:09.512Z,40.35
2023-10-13T16:25:38.741Z,40.50
2023-10-13T16:28:08.857Z,40.47
2023-10-13T16:30:38.419Z,40.24
2023-10-13T16:33:06.464Z,40.28
2023-10-13T16:35:34.941Z,40.03
2023-10-13T16:38:07.542Z,40.11
2023-10-13T16:40:35.629Z,40.19
2023-10-13T16:43:05.228Z,40.17
2023-10-13T16:45:34.136Z,40.46
2023-10-13T16:48:02.248Z,40.51
2023-10-13T16:50:31.065Z,40.75
2023-10-13T16:52:59.378Z,40.59
2023-10-13T16:55:30.136Z,40.41
2023-10-13T16:57:58.191Z,41.03
2023-10-13T17:00:27.677Z,40.82
2023-10-13T17:02:55.921Z,41.07
2023-10-13T17:05:28.862Z,41.00
2023-10-13T17:08:00.373Z,41.46
2023-10-13T17:10:30.071Z,41.49
2023-10-13T17:12:58.726Z,41.59
2023-10-13T17:15:33.087Z,42.10
2023-10-13T17:18:01.008Z,42.12
2023-10-13T17:20:29.088Z,41.85
2023-10-13T17:22:57.392Z,41.79
2023-10-13T17:25:26.590Z,41.89
2023-10-13T17:27:54.684Z,42.60
2023-10-13T17:30:22.480Z,42.90
2023-10-13T17:32:51.584Z,42.91
2023-10-13T17:35:19.599Z,43.08
2023-10-13T17:37:48.268Z,43.17
2023-10-13T17:40:17.519Z,43.63
2023-10-13T17:42:48.260Z,43.31
2023-10-13T17:45:16.195Z,43.55
2023-10-13T17:47:44.609Z,43.46
2023-10-13T17:50:14.504Z,43.70
2023-10-13T17:52:43.435Z,43.96
2023-10-13T17:55:12.215Z,43.71
2023-10-13T17:57:41.462Z,44.25
2023-10-13T18:00:16.935Z,44.21
2023-10-13T18:02:44.881Z,44.68
2023-10-13T18:05:14.072Z,44.29
2023-10-13T18:07:42.279Z,44.52
2023-10-13T18:10:13.730Z,44.22
2023-10-13T18:12:41.735Z,44.56
2023-10-13T18:15:10.818Z,44.82
2023-10-13T18:17:40.648Z,45.08
2023-10-13T18:20:11.362Z,44.96
2023-10-13T18:22:40.932Z,44.96
2023-10-13T18:25:13.168Z,44.69
2023-10-13T18:27:43.314Z,44.73
2023-10-13T18:30:13.375Z,45.21
2023-10-13T18:32:42.293Z,45.13
2023-10-13T18:35:12.550Z,44.56
2023-10-13T18:37:43.371Z,44.58
2023-10-13T18:40:13.914Z,44.45
2023-10-13T18:42:44.079Z,44.91
2023-10-13T18:45:12.790Z,44.49
2023-10-13T18:47:41.180Z,44.79
2023-10-13T18:50:09.242Z,44.92
2023-10-13T18:52:37.048Z,45.13
2023-10-13T18:55:08.728Z,44.42
2023-10-13T18:57:36.579Z,45.10
2023-10-13T19:00:07.738Z,45.19
2023-10-13T19:02:35.586Z,45.34
2023-10-13T19:05:04.229Z,45.29
2023-10-13T19:07:32.165Z,45.68
2023-10-13T19:10:00.056Z,45.64
2023-10-13T19:12:29.251Z,46.03
2023-10-13T19:14:57.257Z,45.83
2023-10-13T19:17:25.509Z,46.42
2023-10-13T19:19:53.286Z,46.05
2023-10-13T19:22:21.400Z,46.17
2023-10-13T19:24:49.267Z,46.14
2023-10-13T19:27:17.003Z,46.02
2023-10-13T19:29:46.143Z,46.60
2023-10-13T19:32:13.958Z,46.61
2023-10-13T19:34:43.154Z,46.65
2023-10-13T19:37:11.015Z,46.37
2023-10-13T19:39:43.423Z,46.72
2023-10-13T19:42:11.750Z,46.77
2023-10-13T19:44:41.263Z,46.19
2023-10-13T19:47:14.931Z,46.71
2023-10-13T19:49:44.513Z,46.94
2023-10-13T19:52:12.473Z,46.38
2023-10-13T19:54:40.936Z,46.34
2023-10-13T19:57:12.233Z,46.36
2023-10-13T19:59:42.172Z,46.97
2023-10-13T20:02:11.429Z,47.36
2023-10-13T20:04:39.289Z,46.96
2023-10-13T20:07:07.382Z,47.12
2023-10-13T20:09:35.197Z,47.50
2023-10-13T20:12:03.755Z,48.11
2023-10-13T20:14:33.487Z,48.56
2023-10-13T20:17:01.279Z,48.66
2023-10-13T20:19:30.482Z,48.84
2023-10-13T20:21:58.829Z,49.32
2023-10-13T20:24:26.608Z,49.19
2023-10-13T20:26:54.443Z,49.84
2023-10-13T20:29:22.252Z,49.93
2023-10-13T20:31:50.607Z,49.50
2023-10-13T20:34:20.571Z,49.90
2023-10-13T20:36:50.111Z,49.81
2023-10-13T20:39:25.431Z,50.06
2023-10-13T20:41:53.317Z,50.24
2023-10-13T20:44:21.077Z,50.86
2023-10-13T20:46:48.960Z,51.20
2023-10-13T20:49:16.898Z,51.15
2023-10-13T20:51:44.804Z,51.17
2023-10-13T20:54:14.283Z,51.07
2023-10-13T20:56:42.934Z,51.58
2023-10-13T20:59:15.408Z,52.26
2023-10-13T21:01:43.692Z,52.25
2023-10-13T21:04:12.963Z,52.53
2023-10-13T21:06:45.548Z,52.58
2023-10-13T21:09:21.507Z,52.92
2023-10-13T21:11:49.934Z,53.07
2023-10-13T21:14:17.892Z,52.58
2023-10-13T21:16:45.712Z,52.83
2023-10-13T21:19:13.622Z,52.66
2023-10-13T21:21:41.881Z,52.41
2023-10-13T21:24:11.802Z,52.56
2023-10-13T21:26:41.110Z,52.19
2023-10-13T21:29:09.891Z,52.45
2023-10-13T21:31:38.531Z,52.20
2023-10-13T21:34:08.202Z,52.25
2023-10-13T21:36:38.086Z,52.17
2023-10-13T21:39:06.162Z,52.12
2023-10-13T21:41:37.997Z,52.23
2023-10-13T21:44:07.998Z,51.90
2023-10-13T21:46:36.972Z,52.46
2023-10-13T21:49:08.130Z,52.55
2023-10-13T21:51:36.681Z,52.67
2023-10-13T21:54:08.580Z,53.01
2023-10-13T21:56:36.883Z,53.26
2023-10-13T21:59:07.132Z,53.25
2023-10-13T22:04:11.535Z,53.45
2023-10-13T22:06:41.307Z,53.34
2023-10-13T22:09:10.927Z,53.63
2023-10-13T22:11:39.387Z,53.72
2023-10-13T22:14:07.624Z,53.68
2023-10-13T22:16:37.811Z,53.66
2023-10-13T22:19:05.709Z,53.89
2023-10-13T22:21:33.556Z,53.65
2023-10-13T22:24:02.024Z,53.60
2023-10-13T22:26:31.201Z,54.07
2023-10-13T22:28:59.929Z,53.90
2023-10-13T22:31:28.435Z,53.65
2023-10-13T22:33:57.661Z,53.43
2023-10-13T22:36:25.687Z,53.62
2023-10-13T22:38:56.991Z,53.43
2023-10-13T22:41:25.058Z,53.66
2023-10-13T22:43:52.759Z,53.25
2023-10-13T22:46:20.700Z,53.48
2023-10-13T22:48:49.262Z,53.39
2023-10-13T22:51:18.602Z,53.55
2023-10-13T22:53:47.063Z,53.68
2023-10-13T22:56:18.610Z,53.61
2023-10-13T22:58:46.997Z,53.31
2023-10-13T23:01:18.824Z,53.57
2023-10-13T23:03:56.893Z,53.57
2023-10-13T23:06:31.556Z,53.57
2023-10-13T23:11:34.388Z,53.43
2023-10-13T23:14:03.033Z,53.47
2023-10-13T23:16:33.552Z,53.76
2023-10-13T23:19:01.705Z,53.92
2023-10-13T23:21:31.317Z,54.10
2023-10-13T23:23:59.998Z,53.96
2023-10-13T23:26:27.970Z,53.99
2023-10-13T23:28:55.681Z,54.03
2023-10-13T23:31:24.917Z,54.03
2023-10-13T23:33:54.643Z,53.98
2023-10-13T23:36:22.855Z,54.07
2023-10-13T23:38:56.486Z,53.96
2023-10-13T23:41:28.379Z,54.22
2023-10-13T23:43:59.450Z,54.02
2023-10-13T23:46:28.053Z,53.83
2023-10-13T23:48:56.154Z,53.94
2023-10-13T23:51:28.275Z,53.90
2023-10-13T23:54:01.866Z,53.36
2023-10-13T23:56:31.066Z,53.31
2023-10-13T23:59:06.647Z,53.24
